createdAt,value
2023-05-13T00:02:09.753Z,99.90
2023-05-13T00:04:38.616Z,99.90
2023-05-13T00:07:06.995Z,99.90
2023-05-13T00:09:35.033Z,99.90
2023-05-13T00:12:03.632Z,99.90
2023-05-13T00:14:32.079Z,97.00
2023-05-13T00:17:02.164Z,98.00
2023-05-13T00:19:32.058Z,96.10
2023-05-13T00:22:00.147Z,99.50
2023-05-13T00:24:28.574Z,99.90
2023-05-13T00:26:56.649Z,99.90
2023-05-13T00:29:24.774Z,99.90
2023-05-13T00:31:54.550Z,99.90
2023-05-13T00:34:22.829Z,99.90
2023-05-13T00:36:52.311Z,99.90
2023-05-13T00:39:20.365Z,99.90
2023-05-13T00:41:48.638Z,99.90
2023-05-13T00:44:16.750Z,98.00
2023-05-13T00:46:45.505Z,92.60
2023-05-13T00:49:13.751Z,92.40
2023-05-13T00:51:41.857Z,99.80
2023-05-13T00:54:11.373Z,99.90
2023-05-13T00:56:40.010Z,99.90
2023-05-13T00:59:08.192Z,99.90
2023-05-13T01:01:56.508Z,99.90
2023-05-13T01:04:32.205Z,99.90
2023-05-13T01:07:10.635Z,99.90
2023-05-13T01:09:53.380Z,99.90
2023-05-13T01:12:27.973Z,99.90
2023-05-13T01:15:00.701Z,99.90
2023-05-13T01:17:34.344Z,98.90
2023-05-13T01:20:04.863Z,99.90
2023-05-13T01:22:34.378Z,99.90
2023-05-13T01:25:02.965Z,99.90
2023-05-13T01:27:31.072Z,99.90
2023-05-13T01:29:59.338Z,99.90
2023-05-13T01:32:28.123Z,99.90
2023-05-13T01:34:57.867Z,99.90
2023-05-13T01:37:26.568Z,99.90
2023-05-13T01:39:56.114Z,99.90
2023-05-13T01:42:25.099Z,99.90
2023-05-13T01:44:53.449Z,99.90
2023-05-13T01:47:21.800Z,99.90
2023-05-13T01:49:49.937Z,99.90
2023-05-13T01:52:18.089Z,99.90
2023-05-13T01:54:46.219Z,99.90
2023-05-13T01:57:15.863Z,99.90
2023-05-13T01:59:43.930Z,99.90
2023-05-13T02:02:12.189Z,99.90
2023-05-13T02:04:40.359Z,99.90
2023-05-13T02:07:08.897Z,99.90
2023-05-13T02:09:37.161Z,99.90
2023-05-13T02:12:06.541Z,99.90
2023-05-13T02:14:36.097Z,99.90
2023-05-13T02:17:04.488Z,99.90
2023-05-13T02:19:32.515Z,99.90
2023-05-13T02:22:00.584Z,99.90
2023-05-13T02:24:31.874Z,99.90
2023-05-13T02:26:59.992Z,99.90
2023-05-13T02:29:28.459Z,99.90
2023-05-13T02:31:58.057Z,99.90
2023-05-13T02:34:26.405Z,99.90
2023-05-13T02:36:54.801Z,99.90
2023-05-13T02:39:23.387Z,99.90
2023-05-13T02:41:51.593Z,99.90
2023-05-13T02:46:49.487Z,99.90
2023-05-13T02:49:19.117Z,99.90
2023-05-13T02:51:50.535Z,99.90
2023-05-13T02:54:18.955Z,99.90
2023-05-13T02:56:47.161Z,99.90
2023-05-13T02:59:15.460Z,99.90
2023-05-13T03:01:45.912Z,99.90
2023-05-13T03:04:15.218Z,99.90
2023-05-13T03:06:51.806Z,99.90
2023-05-13T03:09:20.401Z,99.90
2023-05-13T03:11:48.567Z,99.90
2023-05-13T03:14:18.174Z,99.90
2023-05-13T03:16:48.131Z,99.90
2023-05-13T03:19:18.451Z,99.90
2023-05-13T03:21:50.538Z,99.90
2023-05-13T03:24:22.628Z,99.90
2023-05-13T03:26:51.162Z,99.90
2023-05-13T03:29:20.674Z,99.90
2023-05-13T03:31:50.425Z,99.90
2023-05-13T03:34:18.560Z,99.90
2023-05-13T03:36:54.714Z,99.90
2023-05-13T03:41:48.470Z,99.90
2023-05-13T03:44:16.713Z,99.90
2023-05-13T03:46:48.142Z,99.90
2023-05-13T03:49:16.493Z,99.90
2023-05-13T03:51:46.075Z,99.90
2023-05-13T03:54:16.314Z,99.90
2023-05-13T03:56:59.797Z,99.90
2023-05-13T03:59:34.087Z,99.90
2023-05-13T04:02:02.480Z,99.90
2023-05-13T04:04:32.579Z,99.90
2023-05-13T04:07:04.733Z,99.90
2023-05-13T04:09:37.771Z,99.90
2023-05-13T04:12:06.636Z,99.90
2023-05-13T04:14:38.229Z,99.90
2023-05-13T04:17:06.864Z,99.90
2023-05-13T04:19:37.311Z,99.90
2023-05-13T04:22:05.785Z,99.90
2023-05-13T04:24:38.788Z,99.90
2023-05-13T04:27:07.915Z,99.90
2023-05-13T04:29:36.356Z,99.90
2023-05-13T04:32:04.864Z,99.90
2023-05-13T04:34:34.469Z,99.90
2023-05-13T04:37:02.528Z,99.90
2023-05-13T04:39:31.950Z,99.90
2023-05-13T04:42:04.630Z,99.90
2023-05-13T04:44:37.116Z,99.90
2023-05-13T04:47:05.462Z,99.90
2023-05-13T04:49:35.675Z,99.90
2023-05-13T04:52:05.094Z,99.90
2023-05-13T04:54:38.899Z,99.90
2023-05-13T04:57:14.098Z,99.90
2023-05-13T04:59:42.491Z,99.90
2023-05-13T05:02:13.347Z,99.90
2023-05-13T05:04:48.636Z,99.90
2023-05-13T05:07:24.233Z,99.90
2023-05-13T05:09:52.352Z,99.90
2023-05-13T05:12:21.922Z,99.90
2023-05-13T05:14:49.975Z,99.90
2023-05-13T05:17:19.198Z,99.90
2023-05-13T05:19:48.720Z,99.90
2023-05-13T05:22:16.899Z,99.90
2023-05-13T05:24:44.994Z,99.90
2023-05-13T05:27:14.246Z,39.60
2023-05-13T05:29:49.181Z,33.80
2023-05-13T05:32:17.530Z,39.20
2023-05-13T05:34:46.759Z,29.00
2023-05-13T05:37:15.396Z,45.70
2023-05-13T05:39:44.816Z,41.50
2023-05-13T05:42:16.508Z,31.80
2023-05-13T05:44:59.727Z,73.70
2023-05-13T05:47:32.393Z,85.30
2023-05-13T05:50:05.641Z,69.00
2023-05-13T05:52:35.826Z,93.20
2023-05-13T05:55:07.155Z,91.90
2023-05-13T05:57:35.220Z,69.20
2023-05-13T06:00:19.777Z,62.60
2023-05-13T06:02:49.810Z,98.30
2023-05-13T06:05:18.132Z,93.40
2023-05-13T06:07:49.901Z,72.60
2023-05-13T06:10:18.500Z,64.10
2023-05-13T06:13:02.661Z,64.40
2023-05-13T06:15:40.754Z,49.90
2023-05-13T06:18:10.877Z,48.20
2023-05-13T06:20:39.169Z,60.50
2023-05-13T06:23:07.527Z,44.80
2023-05-13T06:25:39.392Z,12.80
2023-05-13T06:28:11.712Z,20.70
2023-05-13T06:30:41.345Z,24.30
2023-05-13T06:33:13.261Z,9.20
2023-05-13T06:35:43.195Z,1.00
2023-05-13T06:38:13.206Z,1.00
2023-05-13T06:40:42.297Z,1.00
2023-05-13T06:43:18.180Z,1.00
2023-05-13T06:45:57.169Z,1.00
2023-05-13T06:48:27.068Z,1.00
2023-05-13T06:50:56.548Z,1.00
2023-05-13T06:53:24.715Z,1.00
2023-05-13T06:55:52.860Z,1.00
2023-05-13T06:58:21.257Z,1.00
2023-05-13T07:00:54.339Z,1.00
2023-05-13T07:03:28.224Z,1.00
2023-05-13T07:06:11.425Z,1.00
2023-05-13T07:08:40.783Z,1.00
2023-05-13T07:11:10.782Z,1.00
2023-05-13T07:13:40.983Z,1.00
2023-05-13T07:16:11.366Z,1.00
2023-05-13T07:18:39.609Z,1.00
2023-05-13T07:21:19.627Z,1.00
2023-05-13T07:23:47.875Z,1.00
2023-05-13T07:26:19.984Z,1.00
2023-05-13T07:28:54.807Z,1.00
2023-05-13T07:31:24.545Z,1.00
2023-05-13T07:34:16.199Z,1.00
2023-05-13T07:36:51.078Z,1.00
2023-05-13T07:39:26.552Z,1.00
2023-05-13T07:41:55.163Z,1.00
2023-05-13T07:44:24.972Z,1.00
2023-05-13T07:46:54.570Z,1.00
2023-05-13T07:49:23.045Z,1.00
2023-05-13T07:51:55.249Z,1.00
2023-05-13T07:54:23.963Z,1.00
2023-05-13T07:57:05.858Z,1.00
2023-05-13T08:00:17.632Z,1.00
2023-05-13T08:02:47.939Z,1.00
2023-05-13T08:05:23.776Z,1.00
2023-05-13T08:07:58.462Z,1.00
2023-05-13T08:10:27.007Z,1.00
2023-05-13T08:12:57.902Z,1.00
2023-05-13T08:15:27.508Z,1.00
2023-05-13T08:17:57.126Z,1.00
2023-05-13T08:20:30.026Z,1.00
2023-05-13T08:23:04.553Z,1.00
2023-05-13T08:25:37.730Z,1.00
2023-05-13T08:28:06.820Z,1.00
2023-05-13T08:30:35.220Z,1.00
2023-05-13T08:33:04.872Z,1.00
2023-05-13T08:35:33.322Z,1.00
2023-05-13T08:38:03.862Z,1.00
2023-05-13T08:40:42.151Z,1.00
2023-05-13T08:43:11.114Z,1.00
2023-05-13T08:45:51.715Z,1.00
2023-05-13T08:48:25.572Z,1.00
2023-05-13T08:50:54.113Z,1.00
2023-05-13T08:53:24.858Z,1.00
2023-05-13T08:55:53.335Z,1.00
2023-05-13T08:58:23.062Z,1.00
2023-05-13T09:00:52.952Z,1.00
2023-05-13T09:03:29.802Z,1.00
2023-05-13T09:05:57.877Z,1.00
2023-05-13T09:08:35.002Z,1.00
2023-05-13T09:11:03.559Z,1.00
2023-05-13T09:13:55.528Z,1.00
2023-05-13T09:16:24.637Z,1.00
2023-05-13T09:19:00.097Z,1.00
2023-05-13T09:21:30.392Z,1.00
2023-05-13T09:24:09.529Z,1.00
2023-05-13T09:26:41.798Z,1.00
2023-05-13T09:29:18.884Z,1.00
2023-05-13T09:31:49.809Z,1.00
2023-05-13T09:34:27.355Z,1.00
2023-05-13T09:37:23.362Z,1.00
2023-05-13T09:40:59.835Z,1.00
2023-05-13T09:43:30.592Z,1.00
2023-05-13T09:46:02.137Z,1.00
2023-05-13T09:48:31.518Z,1.00
2023-05-13T09:51:01.196Z,1.00
2023-05-13T09:53:30.062Z,1.00
2023-05-13T09:56:00.342Z,1.00
2023-05-13T09:58:31.018Z,1.00
2023-05-13T10:00:59.939Z,1.00
2023-05-13T10:03:30.209Z,1.00
2023-05-13T10:06:16.281Z,1.00
2023-05-13T10:08:45.363Z,1.00
2023-05-13T10:11:25.672Z,1.00
2023-05-13T10:14:04.928Z,1.00
2023-05-13T10:16:34.131Z,1.00
2023-05-13T10:19:04.125Z,1.00
2023-05-13T10:21:36.316Z,1.00
2023-05-13T10:24:05.213Z,1.00
2023-05-13T10:26:44.368Z,1.00
2023-05-13T10:29:26.195Z,1.00
2023-05-13T10:31:55.227Z,99.90
2023-05-13T10:34:24.196Z,1.00
2023-05-13T10:37:09.371Z,1.00
2023-05-13T10:40:23.199Z,1.00
2023-05-13T10:43:02.757Z,1.00
2023-05-13T10:45:34.615Z,1.00
2023-05-13T10:48:10.563Z,1.00
2023-05-13T10:50:39.991Z,1.00
2023-05-13T10:53:20.688Z,1.00
2023-05-13T10:55:53.468Z,1.00
2023-05-13T10:58:24.785Z,1.00
2023-05-13T11:00:54.260Z,1.00
2023-05-13T11:03:30.462Z,1.00
2023-05-13T11:06:15.197Z,1.00
2023-05-13T11:08:46.625Z,1.00
2023-05-13T11:11:36.608Z,1.00
2023-05-13T11:14:16.789Z,1.00
2023-05-13T11:16:49.455Z,1.00
2023-05-13T11:19:22.733Z,1.00
2023-05-13T11:21:54.133Z,1.00
2023-05-13T11:24:24.124Z,1.00
2023-05-13T11:26:54.332Z,1.00
2023-05-13T11:29:43.362Z,1.00
2023-05-13T11:32:17.303Z,1.00
2023-05-13T11:34:55.861Z,1.00
2023-05-13T11:37:24.881Z,1.00
2023-05-13T11:39:54.390Z,1.00
2023-05-13T11:42:22.619Z,1.00
2023-05-13T11:44:52.226Z,1.00
2023-05-13T11:47:28.620Z,1.00
2023-05-13T11:49:57.410Z,1.00
2023-05-13T11:52:29.665Z,1.00
2023-05-13T11:54:59.267Z,1.00
2023-05-13T11:57:32.856Z,1.00
2023-05-13T12:00:02.047Z,1.00
2023-05-13T12:02:32.117Z,1.00
2023-05-13T12:05:02.011Z,1.00
2023-05-13T12:07:32.315Z,1.00
2023-05-13T12:10:33.583Z,1.00
2023-05-13T12:13:06.296Z,1.00
2023-05-13T12:15:34.673Z,1.00
2023-05-13T12:18:03.143Z,1.00
2023-05-13T12:20:31.356Z,1.00
2023-05-13T12:23:02.295Z,1.00
2023-05-13T12:25:51.280Z,1.00
2023-05-13T12:28:21.049Z,1.00
2023-05-13T12:30:54.174Z,1.00
2023-05-13T12:33:23.828Z,1.00
2023-05-13T12:35:53.422Z,1.00
2023-05-13T12:38:55.430Z,1.00
2023-05-13T12:41:26.977Z,1.00
2023-05-13T12:44:00.212Z,1.00
2023-05-13T12:46:30.006Z,1.00
2023-05-13T12:48:59.786Z,1.00
2023-05-13T12:51:29.699Z,1.00
2023-05-13T12:53:58.481Z,1.00
2023-05-13T12:56:29.061Z,1.00
2023-05-13T12:58:57.306Z,1.00
2023-05-13T13:01:25.451Z,1.00
2023-05-13T13:03:53.988Z,1.00
2023-05-13T13:06:22.213Z,1.00
2023-05-13T13:12:16.076Z,1.00
2023-05-13T13:14:46.142Z,1.00
2023-05-13T13:17:14.239Z,1.00
2023-05-13T13:19:42.514Z,1.00
2023-05-13T13:22:10.843Z,1.00
2023-05-13T13:24:38.855Z,1.00
2023-05-13T13:27:11.539Z,1.00
2023-05-13T13:29:40.292Z,1.00
2023-05-13T13:32:09.516Z,1.00
2023-05-13T13:34:38.410Z,1.00
2023-05-13T13:37:06.755Z,1.00
2023-05-13T13:39:35.899Z,1.00
2023-05-13T13:42:05.103Z,1.00
2023-05-13T13:44:44.750Z,1.00
2023-05-13T13:47:14.886Z,1.00
2023-05-13T13:50:01.602Z,1.00
2023-05-13T13:52:30.915Z,1.00
2023-05-13T13:54:58.938Z,1.00
2023-05-13T13:57:27.147Z,1.00
2023-05-13T14:00:31.766Z,1.00
2023-05-13T14:03:00.198Z,1.00
2023-05-13T14:05:28.365Z,1.00
2023-05-13T14:07:57.298Z,1.00
2023-05-13T14:10:35.377Z,1.00
2023-05-13T14:13:39.320Z,1.00
2023-05-13T14:16:09.132Z,1.00
2023-05-13T14:18:41.949Z,1.00
2023-05-13T14:21:11.600Z,1.00
2023-05-13T14:23:41.920Z,1.00
2023-05-13T14:26:10.893Z,1.00
2023-05-13T14:28:39.089Z,1.00
2023-05-13T14:31:08.706Z,1.00
2023-05-13T14:33:37.133Z,1.00
2023-05-13T14:36:08.359Z,1.00
2023-05-13T14:38:43.811Z,1.00
2023-05-13T14:41:15.354Z,1.00
2023-05-13T14:43:43.529Z,1.00
2023-05-13T14:46:15.909Z,1.00
2023-05-13T14:48:44.048Z,1.00
2023-05-13T14:51:13.164Z,1.00
2023-05-13T14:53:43.321Z,1.00
2023-05-13T14:56:15.004Z,1.00
2023-05-13T14:58:51.228Z,1.00
2023-05-13T15:01:20.756Z,1.00
2023-05-13T15:03:49.573Z,1.00
2023-05-13T15:06:31.503Z,1.00
2023-05-13T15:09:02.859Z,1.00
2023-05-13T15:11:33.746Z,1.00
2023-05-13T15:14:03.377Z,1.00
2023-05-13T15:16:33.178Z,1.00
2023-05-13T15:19:01.279Z,1.00
2023-05-13T15:21:30.393Z,1.00
2023-05-13T15:23:58.428Z,1.00
2023-05-13T15:26:26.750Z,1.00
2023-05-13T15:28:54.904Z,1.00
2023-05-13T15:31:23.008Z,1.00
2023-05-13T15:33:52.579Z,1.00
2023-05-13T15:36:21.850Z,1.00
2023-05-13T15:38:49.990Z,1.00
2023-05-13T15:41:18.066Z,1.00
2023-05-13T15:43:46.233Z,1.00
2023-05-13T15:46:14.391Z,1.00
2023-05-13T15:48:42.531Z,1.00
2023-05-13T15:51:17.090Z,1.00
2023-05-13T15:53:53.974Z,1.00
2023-05-13T15:56:22.981Z,1.00
2023-05-13T15:58:51.355Z,1.00
2023-05-13T16:01:19.453Z,1.00
2023-05-13T16:03:59.214Z,1.00
2023-05-13T16:06:28.759Z,1.00
2023-05-13T16:08:57.013Z,1.00
2023-05-13T16:11:25.203Z,1.00
2023-05-13T16:14:06.783Z,1.00
2023-05-13T16:17:10.903Z,1.00
2023-05-13T16:20:06.563Z,1.00
2023-05-13T16:22:38.316Z,1.00
2023-05-13T16:25:15.239Z,1.00
2023-05-13T16:28:21.377Z,1.00
2023-05-13T16:30:49.478Z,1.00
2023-05-13T16:33:17.924Z,1.00
2023-05-13T16:36:27.065Z,1.00
2023-05-13T16:38:57.379Z,1.00
2023-05-13T16:41:25.581Z,1.00
2023-05-13T16:43:53.760Z,1.00
2023-05-13T16:46:35.555Z,1.00
2023-05-13T16:49:09.044Z,1.00
2023-05-13T16:51:39.643Z,1.00
2023-05-13T16:54:16.452Z,1.00
2023-05-13T16:56:46.895Z,1.00
2023-05-13T16:59:21.083Z,1.00
2023-05-13T17:01:51.767Z,1.00
2023-05-13T17:04:20.732Z,1.00
2023-05-13T17:09:53.481Z,1.00
2023-05-13T17:12:29.674Z,1.00
2023-05-13T17:15:00.921Z,1.00
2023-05-13T17:18:34.075Z,1.00
2023-05-13T17:21:07.280Z,1.00
2023-05-13T17:30:34.993Z,1.00
2023-05-13T17:33:03.163Z,1.00
2023-05-13T17:38:49.480Z,1.00
2023-05-13T17:41:17.889Z,1.00
2023-05-13T17:43:46.248Z,1.00
2023-05-13T17:46:31.350Z,1.00
2023-05-13T17:49:53.501Z,1.00
2023-05-13T17:52:23.497Z,1.00
2023-05-13T17:54:51.625Z,1.00
2023-05-13T17:57:20.097Z,1.00
2023-05-13T18:00:01.263Z,1.00
2023-05-13T18:02:30.870Z,1.00
2023-05-13T18:04:59.098Z,1.00
2023-05-13T18:07:45.084Z,1.00
2023-05-13T18:10:13.660Z,1.00
2023-05-13T18:12:41.722Z,1.00
2023-05-13T18:15:12.780Z,1.00
2023-05-13T18:17:50.597Z,1.00
2023-05-13T18:20:42.613Z,1.00
2023-05-13T18:23:14.052Z,1.00
2023-05-13T18:25:52.457Z,1.00
2023-05-13T18:28:25.456Z,1.00
2023-05-13T18:31:23.734Z,1.00
2023-05-13T18:33:55.636Z,1.00
2023-05-13T18:36:23.871Z,1.00
2023-05-13T18:39:06.174Z,1.00
2023-05-13T18:41:34.293Z,1.00
2023-05-13T18:44:02.636Z,1.00
2023-05-13T18:46:31.407Z,1.00
2023-05-13T18:49:04.702Z,1.00
2023-05-13T18:51:48.463Z,1.00
2023-05-13T18:54:22.069Z,1.00
2023-05-13T18:56:52.745Z,1.00
2023-05-13T18:59:21.058Z,1.00
2023-05-13T19:01:51.295Z,1.00
2023-05-13T19:04:29.771Z,1.00
2023-05-13T19:07:05.884Z,1.00
2023-05-13T19:09:36.122Z,1.00
2023-05-13T19:12:04.385Z,1.00
2023-05-13T19:14:32.492Z,1.00
2023-05-13T19:17:00.896Z,1.00
2023-05-13T19:19:30.513Z,1.00
2023-05-13T19:21:58.707Z,1.00
2023-05-13T19:24:26.861Z,1.00
2023-05-13T19:26:55.058Z,1.00
2023-05-13T19:29:23.666Z,1.00
2023-05-13T19:31:51.908Z,1.00
2023-05-13T19:34:20.234Z,1.00
2023-05-13T19:36:49.763Z,1.00
2023-05-13T19:39:26.315Z,1.00
2023-05-13T19:41:54.909Z,1.00
2023-05-13T19:44:23.848Z,1.00
2023-05-13T19:46:52.468Z,1.00
2023-05-13T19:49:20.716Z,1.00
2023-05-13T19:52:00.057Z,1.00
2023-05-13T19:54:28.493Z,1.00
2023-05-13T19:56:56.610Z,1.00
2023-05-13T19:59:24.774Z,1.00
2023-05-13T20:01:52.929Z,1.00
2023-05-13T20:04:21.794Z,1.00
2023-05-13T20:06:58.293Z,1.00
2023-05-13T20:09:26.832Z,1.00
2023-05-13T20:11:54.825Z,1.00
2023-05-13T20:14:28.023Z,1.00
2023-05-13T20:16:56.225Z,1.00
2023-05-13T20:19:24.552Z,1.00
2023-05-13T20:21:54.193Z,1.00
2023-05-13T20:25:29.002Z,1.00
2023-05-13T20:31:11.828Z,1.00
2023-05-13T20:33:40.151Z,1.00
2023-05-13T20:36:08.415Z,1.00
2023-05-13T20:38:37.961Z,1.00
2023-05-13T20:41:06.112Z,1.00
2023-05-13T20:43:36.148Z,1.00
2023-05-13T20:46:06.828Z,1.00
2023-05-13T20:48:35.446Z,1.00
2023-05-13T20:51:13.482Z,1.00
2023-05-13T20:53:53.636Z,1.00
2023-05-13T20:56:24.316Z,1.00
2023-05-13T20:58:53.552Z,1.00
2023-05-13T21:01:21.709Z,1.00
2023-05-13T21:03:50.283Z,1.00
2023-05-13T21:06:18.387Z,1.00
2023-05-13T21:08:47.981Z,1.00
2023-05-13T21:11:16.270Z,1.00
2023-05-13T21:13:44.378Z,1.00
2023-05-13T21:16:13.951Z,1.00
2023-05-13T21:18:42.548Z,1.00
2023-05-13T21:21:12.577Z,1.00
2023-05-13T21:23:43.536Z,1.00
2023-05-13T21:26:13.429Z,1.00
2023-05-13T21:28:41.874Z,1.00
2023-05-13T21:31:10.189Z,1.00
2023-05-13T21:33:38.322Z,1.00
2023-05-13T21:36:06.864Z,1.00
2023-05-13T21:38:35.062Z,1.00
2023-05-13T21:41:03.181Z,1.00
2023-05-13T21:43:32.670Z,1.00
2023-05-13T21:46:00.783Z,1.00
2023-05-13T21:48:31.781Z,1.00
2023-05-13T21:50:59.916Z,1.00
2023-05-13T21:53:30.172Z,1.00
2023-05-13T21:56:00.227Z,1.00
2023-05-13T21:58:34.769Z,1.00
2023-05-13T22:01:03.371Z,1.00
2023-05-13T22:03:32.677Z,1.00
2023-05-13T22:06:02.377Z,1.00
2023-05-13T22:08:30.706Z,1.00
2023-05-13T22:10:58.933Z,1.00
2023-05-13T22:13:27.201Z,1.00
2023-05-13T22:15:56.998Z,1.00
2023-05-13T22:18:25.429Z,1.00
2023-05-13T22:20:53.672Z,1.00
2023-05-13T22:23:21.753Z,1.00
2023-05-13T22:25:51.300Z,1.00
2023-05-13T22:28:20.145Z,1.00
2023-05-13T22:30:51.508Z,1.00
2023-05-13T22:33:21.363Z,1.00
2023-05-13T22:35:49.590Z,1.00
2023-05-13T22:38:17.767Z,1.00
2023-05-13T22:40:46.005Z,1.00
2023-05-13T22:43:15.935Z,1.00
2023-05-13T22:45:44.032Z,1.00
2023-05-13T22:48:12.307Z,1.00
2023-05-13T22:50:42.348Z,1.00
2023-05-13T22:53:10.433Z,1.00
2023-05-13T22:55:38.743Z,1.00
2023-05-13T22:58:06.787Z,1.00
2023-05-13T23:00:34.894Z,1.00
2023-05-13T23:03:03.241Z,1.00
2023-05-13T23:05:31.404Z,1.00
2023-05-13T23:08:01.002Z,1.00
2023-05-13T23:10:30.070Z,1.00
2023-05-13T23:12:58.317Z,1.00
2023-05-13T23:15:26.420Z,1.00
2023-05-13T23:17:54.679Z,1.00
2023-05-13T23:20:22.932Z,1.00
2023-05-13T23:22:51.614Z,1.00
2023-05-13T23:25:21.415Z,1.00
2023-05-13T23:27:49.473Z,1.00
2023-05-13T23:30:18.396Z,1.00
2023-05-13T23:32:46.893Z,1.00
2023-05-13T23:35:15.034Z,1.00
2023-05-13T23:37:43.114Z,1.00
2023-05-13T23:40:11.785Z,1.00
2023-05-13T23:42:43.039Z,1.00
2023-05-13T23:45:12.171Z,1.00
2023-05-13T23:47:40.370Z,1.00
2023-05-13T23:50:09.179Z,1.00
2023-05-13T23:52:37.425Z,1.00
2023-05-13T23:55:06.315Z,1.00
2023-05-13T23:57:34.513Z,1.00
